KEAT

Pangborn Memorial Airport

Wenatchee, Washington, USA
METAR KEAT 170755Z AUTO 13003KT 8SM OVC014 01/01 A2990 RMK AO2 SLP135 T00110006 400221006
Observed Flight Rules
Dec-17 @ 07:55 UTC (34 minutes ago) Marginal Visual Flight Rules
Wind Visibility Clouds
130° at 3 knots 8 miles
  • Overcast at 1,400' AGL
Temperatures Readings
Current 1°C / 34°F
Dewpoint 1°C / 34°F
Humidity 100%
Altimeter 29.9" Hg
Pressure 1013.5 hPa
Elevation 377
METAR KEAT 170755Z AUTO 13003KT 8SM OVC014 01/01 A2990 RMK AO2 SLP135 T00110006 400221006
Observed Flight Rules
Dec-17 @ 07:55 UTC
(34 minutes ago)
MVFR
Wind Visibility
130° at 3 knots 8 miles
Clouds
  • Overcast at 1,400' AGL
Temperature Dewpoint
1°C / 34°F 1°C / 34°F
Humidity Altimeter Pressure
100% 29.9" Hg 1013.5 hPa